KMWH/MWH METAR and TAF weather

Enter ICAO airport designator
Station Type Date Time Source
KMWH METAR 2020/01/23 15:06 UTC NOAA

KMWH 231506Z 00000KT 1/4SM FG VV002 02/01 A3008 RMK AO2 T00220011 RVRNO


Station Type Date Time Source
KMWH Decoded METAR 2020/01/23 15:06 UTC NOAA

GRANT COUNTY AIRPORT, WA, United States (KMWH) 47-12N 119-19W 362M
Jan 23, 2020 - 10:06 AM EST / 2020.01.23 1506 UTC
Wind: Calm:0
Visibility: 1/4 mile(s):0
Sky conditions: obscured
Weather: fog
Temperature: 36.0 F (2.2 C)
Dew Point: 34.0 F (1.1 C)
Relative Humidity: 92%
Pressure (altimeter): 30.08 in. Hg (1018 hPa)
ob: KMWH 231506Z 00000KT 1/4SM FG VV002 02/01 A3008 RMK AO2 T00220011 RVRNO
cycle: 15

Station Type Date Time Source
KMWH TAF 2020/01/23 15:58 UTC NOAA

TAF
AMD KMWH 231456Z 2315/2412 00000KT 1/4SM FG VV001
FM231700 18002KT 4SM -RA BR OVC007

Example: see airport list